Kill Devil Hills, North Carolina
Current Conditions -  °F | °C
As of 10:55 PM on Sunday 23 Nov 2014 (Local Time) from KFFA Reporting Station
Overcast Overcast  
Wind Chill: 65°   Ceiling: 6000
Heat Index: 65°   Visibility: 7mi
Dew Point: 61°   Wind: 14mph
Humidity: 86%   Direction: 150°SSE
Pressure: 29.92"   Gusts: 21mph
Location:  36.03°N, 75.68°W
Report Text: KFFA 240355Z AUTO 15012G18KT 7SM SCT024 SCT030 OVC060 18/16 A2992 RMK AO2 T01830160 403481080
Loading
Personal Weather Stations






























Interactive Weather Map New forecast layout! Learn more

10-Day Weather Forecast

Advertisements
Track Severe Weather on mobile